Current | Forecast
Updated: 1:30 PM CET on February 22, 2018
Observed at Rzeszow, Poland
Temperature -2°C
Windchill -8°C
Humidity 74%
Dew Point -6°C
Wind NNE at 22 km/h
Pressure 1021 hPa (Steady)
Conditions Mostly Cloudy
Visibility 10.0 kilometers
UV 1 out of 16
Clouds Mostly Cloudy (BKN) : 579 m
Yesterday's Maximum -1°C
Yesterday's Minimum -4°C approx.
Yesterday's Heating Degree Days 38 approx.
Sunrise6:25 AM CET
Sunset4:58 PM CET
Moon Rise9:36 AM CET
Moon Set
Moon PhaseMoon Phase
Waxing Crescent
Raw METARMETAR EPRZ 221230Z 02012KT 9999 BKN019 M02/M06 Q1021


Monday
. High: 62° F.
Tuesday
. High: 66° F.
Wednesday
. High: 75° F.
Thursday
. High: 78° F.
Friday
. High: 68° F.
Saturday
. High: 64° F.
Sunday
. High: 68° F.
Monday
. High: 64° F.

Units: English | Metric

Find the Weather for any City, State or Zipcode, or Country:

U.S. State List | Severe Weather | Tropical Storms | Ski Conditions
United States | Canada | Central America | South America | Asia | Europe | Australia | Africa | Islands

Weather Underground

© Copyright 2018
The Weather Company, LLC